Stunt Ranch Reserve, Santa Monica Mtns, California Weather observations

Data are for 10 minute period ending at time listed.
 Day   Time   Solar   Ave.   Ave.  Ave.  Vector  Max.   Baro.   Total    
  of    of     Rad.   Air    Rel.  Wind   Wind   Wind  Press.  Precip.   
Year   Day            Temp.  Hum.  Speed  Dir.   Gust                    
2021   (PST)  Kw/m2    F      %     mph   deg.    mph    mb.     in.     
-------------------------------------------------------------------------
 107   15:10   0.63   78.0    34    5.6   276    12.4   968.2    0.00 
 107   15:20   0.60   78.2    33    4.3   286    11.4   968.1    0.00 
 107   15:30   0.57   79.5    29    3.4   288    11.5   968.2    0.00 
 107   15:40   0.54   79.6    28    4.5   320    10.7   968.2    0.00 
 107   15:50   0.50   79.4    27    4.5   296    10.2   968.2    0.00 
 107   16:00   0.47   78.6    26    4.4   285     8.7   968.3    0.00 
 107   16:10   0.44   78.4    27    2.8   289     9.0   968.3    0.00 
 107   16:20   0.40   78.3    26    3.4   284     8.3   968.3    0.00 
 107   16:30   0.37   78.3    24    3.5   292    10.0   968.3    0.00 
 107   16:40   0.33   78.0    25    3.3   316     9.4   968.3    0.00 
 107   16:50   0.30   78.1    24    2.8   280     7.0   968.3    0.00 
 107   17:00   0.27   77.6    24    3.6   283     9.9   968.2    0.00 
 107   17:10   0.23   76.3    25    2.6   279     9.4   968.3    0.00 
 107   17:20   0.20   75.6    25    4.6   274    12.4   968.3    0.00 
 107   17:30   0.16   74.4    26    4.0   276    10.5   968.2    0.00 
 107   17:40   0.13   72.6    29    1.8   290     6.5   968.3    0.00 
 107   17:50   0.04   71.6    29    4.0   272    10.2   968.5    0.00 
 107   18:00   0.03   71.1    28    5.5   270    10.5   968.5    0.00 
 107   18:10   0.02   70.5    28    2.9   270     8.8   968.6    0.00 
 107   18:20   0.01   68.9    30    1.7   273     5.2   968.6    0.00 
 107   18:30   0.01   67.7    30    0.5   224     2.0   968.8    0.00 
 107   18:40   0.00   67.1    30    2.5   205     4.6   968.9    0.00 
 107   18:50   0.00   66.3    32    2.9   226     4.4   968.9    0.00 
 107   19:00   0.00   65.8    33    2.9   229     4.3   969.0    0.00 
 107   19:10   0.00   65.3    35    3.8   240     6.7   969.1    0.00 
 107   19:20   0.00   64.2    39    3.3   260     8.0   969.2    0.00 
 107   19:30   0.00   63.8    41    2.4   261     4.1   969.3    0.00 
 107   19:40   0.00   63.2    43    1.8   262     3.6   969.4    0.00 
 107   19:50   0.00   62.9    45    1.2   271     2.2   969.5    0.00 
 107   20:00   0.00   62.6    46    1.0   118     2.6   969.6    0.00 
 107   20:10   0.00   62.7    46    2.0   215     3.7   969.7    0.00 
 107   20:20   0.00   62.9    47    3.0   206     5.2   969.8    0.00 
 107   20:30   0.00   62.9    47    3.5   227     6.0   969.9    0.00 
 107   20:40   0.00   62.3    48    2.5   222     4.7   969.9    0.00 
 107   20:50   0.00   61.6    46    1.6   127     3.6   970.0    0.00 
 107   21:00   0.00   61.9    45    1.9   122     2.8   970.0    0.00 
 107   21:10   0.00   62.6    44    1.6   122     2.6   970.0    0.00 
 107   21:20   0.00   62.7    44    2.2   122     3.9   970.1    0.00 
 107   21:30   0.00   62.2    44    3.0   114     5.0   970.1    0.00 
 107   21:40   0.00   62.6    42    2.6   113     5.0   970.1    0.00 
 107   21:50   0.00   63.6    38    4.3   129     8.0   970.2    0.00 
 107   22:00   0.00   65.8    34    2.3   118     5.8   970.3    0.00 
 107   22:10   0.00   67.2    33    1.4   119     3.0   970.3    0.00 
 107   22:20   0.00   64.9    36    2.0    59     4.2   970.3    0.00 
 107   22:30   0.00   64.1    37    2.0   102     5.1   970.4    0.00 
 107   22:40   0.00   66.0    34    3.7    98     6.4   970.4    0.00 
 107   22:50   0.00   67.0    32    4.2   108     6.7   970.4    0.00 
 107   23:00   0.00   67.8    31    2.5   103     4.7   970.4    0.00 
 107   23:10   0.00   68.5    29    2.4   110     5.2   970.5    0.00 
 107   23:20   0.00   68.9    29    2.1   135     4.7   970.5    0.00 
 107   23:30   0.00   68.2    29    0.6   347     2.7   970.6    0.00 
 107   23:40   0.00   68.1    29    0.6    41     2.9   970.6    0.00 
 107   23:50   0.00   67.6    29    2.3    94     5.1   970.6    0.00 
 108    0:00   0.00   68.4    29    3.6    98     6.9   970.6    0.00 
 108    0:10   0.00   66.1    32    1.7   107     4.5   970.6    0.00 
 108    0:20   0.00   63.9    35    1.1   144     3.3   970.7    0.00 
 108    0:30   0.00   64.0    33    2.6   134     6.7   970.8    0.00 
 108    0:40   0.00   65.2    31    3.2   135     6.4   970.8    0.00 
 108    0:50   0.00   65.5    30    2.9   134     6.1   970.8    0.00 
 108    1:00   0.00   66.4    28    3.0   140     5.9   970.7    0.00 
 108    1:10   0.00   65.8    28    2.7   126     5.6   970.7    0.00 
 108    1:20   0.00   65.2    28    3.3   106     5.3   970.7    0.00 
 108    1:30   0.00   63.8    34    1.3   279     2.3   970.8    0.00 
 108    1:40   0.00   62.1    33    0.8   146     2.3   970.8    0.00 
 108    1:50   0.00   62.1    32    2.1   182     4.8   970.9    0.00 
 108    2:00   0.00   64.7    27    2.0   167     5.2   971.1    0.00 
 108    2:10   0.00   66.0    24    2.4    76     8.0   971.2    0.00 
 108    2:20   0.00   65.9    23    1.8    79     6.1   971.3    0.00 
 108    2:30   0.00   65.2    24    2.2    70     7.6   971.4    0.00 
 108    2:40   0.00   66.8    21    3.2    35     6.9   971.5    0.00 
 108    2:50   0.00   66.4    22    0.8    64     4.3   971.5    0.00 
 108    3:00   0.00   66.0    22    1.3    48     3.5   971.6    0.00 
 108    3:10   0.00   66.1    22    1.7   151     3.2   971.6    0.00 
 108    3:20   0.00   65.3    22    1.8   109     4.3   971.6    0.00 
 108    3:30   0.00   66.1    21    2.3    30     5.8   971.7    0.00 
 108    3:40   0.00   64.5    23    3.2   351     7.0   971.8    0.00 
 108    3:50   0.00   65.2    22    2.9    14     9.4   971.9    0.00 
 108    4:00   0.00   65.5    22    3.2   348     7.7   971.9    0.00 
 108    4:10   0.00   65.7    21    2.2   327     6.6   971.9    0.00 
 108    4:20   0.00   65.2    21    2.7   329     6.7   971.9    0.00 
 108    4:30   0.00   64.4    21    2.0   352     8.4   972.0    0.00 
 108    4:40   0.00   64.0    21    0.6    96     2.9   972.1    0.00 
 108    4:50   0.00   64.0    21    1.8    36     6.0   972.2    0.00 
 108    5:00   0.00   63.9    21    2.9    95     6.3   972.3    0.00 
 108    5:10   0.00   63.5    21    2.3    82     6.7   972.4    0.00 
 108    5:20   0.00   63.6    20    2.9    60     8.9   972.4    0.00 
 108    5:30   0.01   63.8    20    2.7    71     7.2   972.5    0.00 
 108    5:40   0.01   63.4    20    1.3   112     5.6   972.6    0.00 
 108    5:50   0.01   62.7    21    2.2    85    10.5   972.8    0.00 
 108    6:00   0.02   63.4    20    4.3    69     8.6   972.9    0.00 
 108    6:10   0.02   63.6    19    4.9    65    12.0   973.0    0.00 
 108    6:20   0.07   64.2    18    2.0    70     8.4   973.2    0.00 
 108    6:30   0.17   66.8    17    2.2   334     6.4   973.3    0.00 
 108    6:40   0.20   68.0    16    3.9   346    10.7   973.4    0.00 
 108    6:50   0.24   68.8    16    2.9   353     9.1   973.5    0.00 
 108    7:00   0.27   68.7    15    1.9   258     5.6   973.5    0.00 
 108    7:10   0.31   69.4    15    3.7    44    10.3   973.5    0.00 
 108    7:20   0.34   69.7    15    4.4   293    12.3   973.4    0.00 
 108    7:30   0.38   70.8    15    3.8   308    10.6   973.5    0.00 
 108    7:40   0.42   72.0    14    5.9   324    12.5   973.5    0.00 
 108    7:50   0.44   71.7    14    5.6   318    16.5   973.5    0.00 
 108    8:00   0.49   73.3    13    6.5   338    17.0   973.5    0.00 
 108    8:10   0.52   74.2    12    7.4   333    16.0   973.6    0.00 
 108    8:20   0.56   74.9    12    5.9   333    14.1   973.7    0.00 
 108    8:30   0.59   75.4    11    8.0   332    16.3   973.7    0.00 
 108    8:40   0.62   75.9    11    8.7   340    20.5   973.6    0.00 
 108    8:50   0.65   75.8    10    8.3   327    23.6   973.6    0.00 
 108    9:00   0.68   75.7    10    8.6     6    28.3   973.7    0.00 
 108    9:10   0.71   75.6     9    9.8   341    26.0   973.6    0.00 
 108    9:20   0.74   75.5     9    9.7     1    24.7   973.5    0.00 
 108    9:30   0.76   76.7     9    9.3   330    24.8   973.3    0.00 
 108    9:40   0.79   77.0     8    9.1   343    23.0   973.4    0.00 
 108    9:50   0.81   77.1     9   10.0   342    35.4   973.3    0.00 
 108   10:00   0.83   77.4     8   11.6   332    30.9   973.5    0.00 
 108   10:10   0.85   77.5     8    9.9   350    28.9   973.6    0.00 
 108   10:20   0.86   78.1     8    9.5   348    25.1   973.5    0.00 
 108   10:30   0.88   78.8     8    8.2    11    20.0   973.6    0.00 
 108   10:40   0.90   80.0     7    6.9   346    23.8   973.4    0.00 
 108   10:50   0.91   79.7     7   10.4   356    24.6   973.3    0.00 
 108   11:00   0.92   81.1     7    7.8   342    20.9   973.1    0.00 
 108   11:10   0.93   80.7     6    7.7     1    24.3   973.1    0.00 
 108   11:20   0.94   81.5     6    7.2    23    22.0   973.0    0.00 
 108   11:30   0.95   80.6     6    8.6    41    26.9   972.9    0.00 
 108   11:40   0.95   81.0     6    7.4     8    19.1   972.7    0.00 
 108   11:50   0.95   82.2     6    6.1   349    20.2   972.6    0.00 
 108   12:00   0.95   81.1     6    9.0     6    19.4   972.6    0.00 
 108   12:10   0.96   83.5     6    7.1   345    18.2   972.6    0.00 
 108   12:20   0.92   85.3     6    7.5   338    21.0   972.5    0.00 
 108   12:30   0.95   85.2     6    8.0     0    22.6   972.6    0.00 
 108   12:40   0.95   82.7     6    9.6    14    24.2   972.4    0.00 
 108   12:50   0.94   84.6     6    7.4   350    20.0   972.3    0.00 
 108   13:00   0.93   84.1     6    9.0    21    22.4   972.2    0.00 
 108   13:10   0.92   83.5     6    8.4    31    15.6   972.1    0.00 
 108   13:20   0.91   82.7     6    7.5    27    20.9   972.0    0.00 
 108   13:30   0.89   85.3     6    3.1   349    10.2   971.7    0.00 
 108   13:40   0.88   84.8     5    6.0    23    14.9   971.7    0.00 
 108   13:50   0.86   84.1     6    6.5    89    17.7   971.6    0.00 
 108   14:00   0.84   83.4     6    8.4    71    22.5   971.4    0.00 
 108   14:10   0.82   85.2     5    6.7    25    14.5   971.3    0.00 
 108   14:20   0.80   85.2     5    4.4   345    19.2   971.1    0.00 
 108   14:30   0.78   84.0     5    6.1    81    17.2   971.0    0.00 
 108   14:40   0.75   83.2     5    6.3    78    19.8   970.7    0.00 
 108   14:50   0.72   84.0     5    7.3    29    15.9   970.7    0.00 
 108   15:00   0.70   87.1     5    5.8   351    14.8   970.6    0.00 

Return to Stunt Ranch Reserve graphs page.


Western Regional Climate Center,wrcc@dri.edu